Kezdőlap
METAR-TAF:

METAR-TAF

Repülőterek :

Maszkat, Omán

földrajzi szélesség: 23-35N, földrajzi hosszúság: 058-17E, magasság: 8 m

Jelenlegi meteorológiai megfigyelések

A jelentés 45 perccel ezelõtt készült, 18:50 UTC
Kelet-északkeleti szél 3 kt
Hőmérséklet 26°C
Páratartalom 74%
Légköri nyomás 1010 hPa
Látótávolság 10 km, vagy több
felhőtlen 1500 m magasságban, és nincs gomolyfelhõ

METAR: OOMS 211850Z 06003KT CAVOK 26/21 Q1010 NOSIG

Idő: 23:35 (19:35 UTC)

Előrejelzés

A jelentés 2 órával és 35 perccel ezelõtt készült, 17:00 UTC
Az előrejelzés 21-én 18 óra UTC és 22-én 24 óra UTC között érvényes
Különbözõ irányokból fújó szél 2 kt
Látótávolság: 8000 m
22-én 06 óra UTC és 22-én 08 óra UTC között fokozatosan kialakuló
Északkeleti szél 16 kt
22-én 15 óra UTC és 22-én 17 óra UTC között fokozatosan kialakuló
Különbözõ irányokból fújó szél 2 kt

TAF: OOMS 211700Z 2118/2224 VRB02KT 8000 NSC BECMG 2206/2208 04016KT BECMG 2215/2217 VRB02KT

Meteorológiai megfigyelések és előrejelzések több, mint 4000 repülőtéren (METAR és TAF jelentéseket).

A térképen piros és sárga pontok jelzik az elérhető meteorológiai állomásokat.

Mozgassa az egeret a pont fölött, hogy megjelenjen az állomás neve.

Azután kattintson az időjárási megfigyelések és előrejelzések megtekintéséhez.

A térkép megváltoztatása: kattintson a fekete keresztel jelölt zöld gombra ráközelítéshez, a vonallal jelölt zöld gombra távolításhoz, vagy a zöld nyilakra a szomszédos térképek eléréséhez.


METAR-TAF: